Stratham, New Hampshire
Current Conditions -  °F | °C
As of 4:14 AM on Thursday 27 Nov 2014 (Local Time) from KPSM Reporting Station
Light Snow Light Snow  
Wind Chill: 25°   Ceiling: 1500
Heat Index: 34°   Visibility: 4mi
Dew Point: 30°   Wind: 13mph
Humidity: 87%   Direction: 340°NNW
Pressure: 29.76"   Gusts: NA
Location:  43.02°N, 70.91°W
Report Text: KPSM 270914Z 34011KT 4SM -SN BR FEW007 BKN015 OVC060 01/M01 A2976
Loading
Personal Weather Stations






























Interactive Weather Map New forecast layout! Learn more

10-Day Weather Forecast

Advertisements
Track Severe Weather on mobile